sensor_id;sensor_type;location;lat;lon;timestamp;temperature;humidity
62589;DHT22;58504;48.770;9.148;2023-05-07T00:01:36;21.20;55.40
62589;DHT22;58504;48.770;9.148;2023-05-07T00:04:03;21.20;55.40
62589;DHT22;58504;48.770;9.148;2023-05-07T00:06:32;21.20;55.40
62589;DHT22;58504;48.770;9.148;2023-05-07T00:08:59;21.20;55.50
62589;DHT22;58504;48.770;9.148;2023-05-07T00:11:26;21.20;55.40
62589;DHT22;58504;48.770;9.148;2023-05-07T00:13:53;21.20;55.40
62589;DHT22;58504;48.770;9.148;2023-05-07T00:16:20;21.20;55.40
62589;DHT22;58504;48.770;9.148;2023-05-07T00:18:46;21.20;55.40
62589;DHT22;58504;48.770;9.148;2023-05-07T00:21:13;21.20;55.40
62589;DHT22;58504;48.770;9.148;2023-05-07T00:23:41;21.20;55.40
62589;DHT22;58504;48.770;9.148;2023-05-07T00:26:08;21.20;55.50
62589;DHT22;58504;48.770;9.148;2023-05-07T00:28:35;21.20;55.40
62589;DHT22;58504;48.770;9.148;2023-05-07T00:31:02;21.20;55.50
62589;DHT22;58504;48.770;9.148;2023-05-07T00:33:28;21.20;55.50
62589;DHT22;58504;48.770;9.148;2023-05-07T00:35:55;21.20;55.50
62589;DHT22;58504;48.770;9.148;2023-05-07T00:38:22;21.10;55.40
62589;DHT22;58504;48.770;9.148;2023-05-07T00:40:50;21.10;55.40
62589;DHT22;58504;48.770;9.148;2023-05-07T00:43:17;21.10;55.40
62589;DHT22;58504;48.770;9.148;2023-05-07T00:45:43;21.10;55.40
62589;DHT22;58504;48.770;9.148;2023-05-07T00:48:11;21.10;55.40
62589;DHT22;58504;48.770;9.148;2023-05-07T00:50:37;21.10;55.40
62589;DHT22;58504;48.770;9.148;2023-05-07T00:53:05;21.10;55.40
62589;DHT22;58504;48.770;9.148;2023-05-07T00:55:33;21.10;55.40
62589;DHT22;58504;48.770;9.148;2023-05-07T00:58:01;21.10;55.40
62589;DHT22;58504;48.770;9.148;2023-05-07T01:00:28;21.10;55.50
62589;DHT22;58504;48.770;9.148;2023-05-07T01:02:54;21.10;55.40
62589;DHT22;58504;48.770;9.148;2023-05-07T01:05:23;21.10;55.50
62589;DHT22;58504;48.770;9.148;2023-05-07T01:07:52;21.10;55.50
62589;DHT22;58504;48.770;9.148;2023-05-07T01:10:20;21.10;55.50
62589;DHT22;58504;48.770;9.148;2023-05-07T01:12:47;21.10;55.50
62589;DHT22;58504;48.770;9.148;2023-05-07T01:15:16;21.10;55.50
62589;DHT22;58504;48.770;9.148;2023-05-07T01:17:44;21.10;55.50
62589;DHT22;58504;48.770;9.148;2023-05-07T01:20:11;21.10;55.50
62589;DHT22;58504;48.770;9.148;2023-05-07T01:22:39;21.10;55.40
62589;DHT22;58504;48.770;9.148;2023-05-07T01:25:07;21.10;55.50
62589;DHT22;58504;48.770;9.148;2023-05-07T01:27:34;21.10;55.50
62589;DHT22;58504;48.770;9.148;2023-05-07T01:30:02;21.10;55.50
62589;DHT22;58504;48.770;9.148;2023-05-07T01:32:35;21.10;55.50
62589;DHT22;58504;48.770;9.148;2023-05-07T01:35:04;21.10;55.60
62589;DHT22;58504;48.770;9.148;2023-05-07T01:37:32;21.10;55.60
62589;DHT22;58504;48.770;9.148;2023-05-07T01:40:01;21.10;55.60
62589;DHT22;58504;48.770;9.148;2023-05-07T01:42:28;21.10;55.60
62589;DHT22;58504;48.770;9.148;2023-05-07T01:44:55;21.10;55.60
62589;DHT22;58504;48.770;9.148;2023-05-07T01:47:23;21.10;55.60
62589;DHT22;58504;48.770;9.148;2023-05-07T01:49:50;21.10;55.70
62589;DHT22;58504;48.770;9.148;2023-05-07T01:52:17;21.10;55.70
62589;DHT22;58504;48.770;9.148;2023-05-07T01:54:44;21.10;55.70
62589;DHT22;58504;48.770;9.148;2023-05-07T01:57:12;21.10;55.60
62589;DHT22;58504;48.770;9.148;2023-05-07T01:59:39;21.00;55.60
62589;DHT22;58504;48.770;9.148;2023-05-07T02:02:06;21.00;55.60
62589;DHT22;58504;48.770;9.148;2023-05-07T02:04:32;21.00;55.60
62589;DHT22;58504;48.770;9.148;2023-05-07T02:06:59;21.00;55.60
62589;DHT22;58504;48.770;9.148;2023-05-07T02:09:26;21.00;55.70
62589;DHT22;58504;48.770;9.148;2023-05-07T02:11:53;21.00;55.60
62589;DHT22;58504;48.770;9.148;2023-05-07T02:14:21;21.00;55.80
62589;DHT22;58504;48.770;9.148;2023-05-07T02:16:47;21.00;55.80
62589;DHT22;58504;48.770;9.148;2023-05-07T02:19:14;21.10;55.80
62589;DHT22;58504;48.770;9.148;2023-05-07T02:21:41;21.00;55.70
62589;DHT22;58504;48.770;9.148;2023-05-07T02:24:08;21.00;55.70
62589;DHT22;58504;48.770;9.148;2023-05-07T02:26:35;21.00;55.70
62589;DHT22;58504;48.770;9.148;2023-05-07T02:29:01;21.00;55.60
62589;DHT22;58504;48.770;9.148;2023-05-07T02:31:29;21.00;55.60
62589;DHT22;58504;48.770;9.148;2023-05-07T02:33:56;21.00;55.70
62589;DHT22;58504;48.770;9.148;2023-05-07T02:36:23;21.00;55.70
62589;DHT22;58504;48.770;9.148;2023-05-07T02:38:50;21.00;55.60
62589;DHT22;58504;48.770;9.148;2023-05-07T02:41:16;21.00;55.60
62589;DHT22;58504;48.770;9.148;2023-05-07T02:43:43;21.00;55.60
62589;DHT22;58504;48.770;9.148;2023-05-07T02:46:10;21.00;55.60
62589;DHT22;58504;48.770;9.148;2023-05-07T02:48:38;21.00;55.60
62589;DHT22;58504;48.770;9.148;2023-05-07T02:51:05;21.00;55.60
62589;DHT22;58504;48.770;9.148;2023-05-07T02:53:32;21.00;55.60
62589;DHT22;58504;48.770;9.148;2023-05-07T02:55:59;21.00;55.70
62589;DHT22;58504;48.770;9.148;2023-05-07T02:58:26;21.00;55.60
62589;DHT22;58504;48.770;9.148;2023-05-07T03:00:53;21.00;55.60
62589;DHT22;58504;48.770;9.148;2023-05-07T03:03:21;21.00;55.70
62589;DHT22;58504;48.770;9.148;2023-05-07T03:05:49;21.00;55.70
62589;DHT22;58504;48.770;9.148;2023-05-07T03:08:15;21.00;55.60
62589;DHT22;58504;48.770;9.148;2023-05-07T03:10:42;21.00;55.60
62589;DHT22;58504;48.770;9.148;2023-05-07T03:13:09;20.90;55.60
62589;DHT22;58504;48.770;9.148;2023-05-07T03:15:36;20.90;55.60
62589;DHT22;58504;48.770;9.148;2023-05-07T03:18:03;21.00;55.70
62589;DHT22;58504;48.770;9.148;2023-05-07T03:20:29;20.90;55.60
62589;DHT22;58504;48.770;9.148;2023-05-07T03:22:58;21.00;55.60
62589;DHT22;58504;48.770;9.148;2023-05-07T03:25:25;20.90;55.60
62589;DHT22;58504;48.770;9.148;2023-05-07T03:27:51;20.90;55.60
62589;DHT22;58504;48.770;9.148;2023-05-07T03:30:18;20.90;55.60
62589;DHT22;58504;48.770;9.148;2023-05-07T03:32:45;20.90;55.60
62589;DHT22;58504;48.770;9.148;2023-05-07T03:35:12;20.90;55.60
62589;DHT22;58504;48.770;9.148;2023-05-07T03:37:39;20.90;55.70
62589;DHT22;58504;48.770;9.148;2023-05-07T03:40:08;20.90;55.60
62589;DHT22;58504;48.770;9.148;2023-05-07T03:42:36;20.90;55.70
62589;DHT22;58504;48.770;9.148;2023-05-07T03:45:03;20.90;55.70
62589;DHT22;58504;48.770;9.148;2023-05-07T03:47:30;20.90;55.70
62589;DHT22;58504;48.770;9.148;2023-05-07T03:49:57;20.90;55.60
62589;DHT22;58504;48.770;9.148;2023-05-07T03:52:24;20.90;55.70
62589;DHT22;58504;48.770;9.148;2023-05-07T03:54:52;20.90;55.70
62589;DHT22;58504;48.770;9.148;2023-05-07T03:57:20;20.90;55.70
62589;DHT22;58504;48.770;9.148;2023-05-07T03:59:47;20.90;55.70
62589;DHT22;58504;48.770;9.148;2023-05-07T04:02:13;20.90;55.70
62589;DHT22;58504;48.770;9.148;2023-05-07T04:04:40;20.90;55.70
62589;DHT22;58504;48.770;9.148;2023-05-07T04:07:07;20.90;55.80
62589;DHT22;58504;48.770;9.148;2023-05-07T04:09:34;20.90;55.80
62589;DHT22;58504;48.770;9.148;2023-05-07T04:12:01;20.90;55.80
62589;DHT22;58504;48.770;9.148;2023-05-07T04:14:29;20.90;55.80
62589;DHT22;58504;48.770;9.148;2023-05-07T04:16:57;20.90;55.80
62589;DHT22;58504;48.770;9.148;2023-05-07T04:19:24;20.90;55.80
62589;DHT22;58504;48.770;9.148;2023-05-07T04:21:51;20.90;55.80
62589;DHT22;58504;48.770;9.148;2023-05-07T04:24:18;20.90;55.70
62589;DHT22;58504;48.770;9.148;2023-05-07T04:26:44;20.90;55.80
62589;DHT22;58504;48.770;9.148;2023-05-07T04:29:11;20.90;55.80
62589;DHT22;58504;48.770;9.148;2023-05-07T04:31:39;20.90;55.70
62589;DHT22;58504;48.770;9.148;2023-05-07T04:34:06;20.90;55.70
62589;DHT22;58504;48.770;9.148;2023-05-07T04:36:33;20.90;55.80
62589;DHT22;58504;48.770;9.148;2023-05-07T04:38:59;20.90;55.70
62589;DHT22;58504;48.770;9.148;2023-05-07T04:41:26;20.90;55.70
62589;DHT22;58504;48.770;9.148;2023-05-07T04:43:53;20.90;55.70
62589;DHT22;58504;48.770;9.148;2023-05-07T04:46:20;20.90;55.70
62589;DHT22;58504;48.770;9.148;2023-05-07T04:48:49;20.90;55.70
62589;DHT22;58504;48.770;9.148;2023-05-07T04:51:15;20.90;55.70
62589;DHT22;58504;48.770;9.148;2023-05-07T04:53:42;20.90;55.70
62589;DHT22;58504;48.770;9.148;2023-05-07T04:56:09;20.90;55.80
62589;DHT22;58504;48.770;9.148;2023-05-07T04:58:35;20.90;55.70
62589;DHT22;58504;48.770;9.148;2023-05-07T05:01:02;20.90;55.70
62589;DHT22;58504;48.770;9.148;2023-05-07T05:03:30;20.90;55.70
62589;DHT22;58504;48.770;9.148;2023-05-07T05:05:58;20.90;55.70
62589;DHT22;58504;48.770;9.148;2023-05-07T05:08:25;20.90;55.70
62589;DHT22;58504;48.770;9.148;2023-05-07T05:10:52;20.90;55.70
62589;DHT22;58504;48.770;9.148;2023-05-07T05:13:19;20.90;55.60
62589;DHT22;58504;48.770;9.148;2023-05-07T05:15:46;20.90;55.60
62589;DHT22;58504;48.770;9.148;2023-05-07T05:18:13;20.90;55.60
62589;DHT22;58504;48.770;9.148;2023-05-07T05:20:40;20.90;55.60
62589;DHT22;58504;48.770;9.148;2023-05-07T05:23:08;20.90;55.60
62589;DHT22;58504;48.770;9.148;2023-05-07T05:25:35;20.90;55.50
62589;DHT22;58504;48.770;9.148;2023-05-07T05:28:02;21.00;55.40
62589;DHT22;58504;48.770;9.148;2023-05-07T05:30:29;21.00;55.20
62589;DHT22;58504;48.770;9.148;2023-05-07T05:32:56;21.00;55.00
62589;DHT22;58504;48.770;9.148;2023-05-07T05:35:23;21.10;55.00
62589;DHT22;58504;48.770;9.148;2023-05-07T05:37:49;21.10;55.00
62589;DHT22;58504;48.770;9.148;2023-05-07T05:40:18;21.10;54.80
62589;DHT22;58504;48.770;9.148;2023-05-07T05:42:44;21.20;54.90
62589;DHT22;58504;48.770;9.148;2023-05-07T05:45:11;21.20;54.80
62589;DHT22;58504;48.770;9.148;2023-05-07T05:47:38;21.20;54.80
62589;DHT22;58504;48.770;9.148;2023-05-07T05:50:06;21.30;54.80
62589;DHT22;58504;48.770;9.148;2023-05-07T05:52:33;21.30;54.70
62589;DHT22;58504;48.770;9.148;2023-05-07T05:55:00;21.30;55.10
62589;DHT22;58504;48.770;9.148;2023-05-07T05:57:28;21.40;54.60
62589;DHT22;58504;48.770;9.148;2023-05-07T05:59:55;21.40;54.60
62589;DHT22;58504;48.770;9.148;2023-05-07T06:02:22;21.40;55.10
62589;DHT22;58504;48.770;9.148;2023-05-07T06:04:48;21.40;54.50
62589;DHT22;58504;48.770;9.148;2023-05-07T06:07:15;21.50;54.40
62589;DHT22;58504;48.770;9.148;2023-05-07T06:09:42;21.50;54.30
62589;DHT22;58504;48.770;9.148;2023-05-07T06:12:09;21.50;54.20
62589;DHT22;58504;48.770;9.148;2023-05-07T06:14:37;21.60;54.20
62589;DHT22;58504;48.770;9.148;2023-05-07T06:17:04;21.60;54.00
62589;DHT22;58504;48.770;9.148;2023-05-07T06:19:31;21.70;53.90
62589;DHT22;58504;48.770;9.148;2023-05-07T06:21:58;21.70;53.80
62589;DHT22;58504;48.770;9.148;2023-05-07T06:24:26;21.70;53.70
62589;DHT22;58504;48.770;9.148;2023-05-07T06:26:53;21.70;53.60
62589;DHT22;58504;48.770;9.148;2023-05-07T06:29:20;21.70;53.50
62589;DHT22;58504;48.770;9.148;2023-05-07T06:31:48;21.70;53.50
62589;DHT22;58504;48.770;9.148;2023-05-07T06:34:15;21.70;53.50
62589;DHT22;58504;48.770;9.148;2023-05-07T06:36:42;21.70;53.50
62589;DHT22;58504;48.770;9.148;2023-05-07T06:39:08;21.70;53.50
62589;DHT22;58504;48.770;9.148;2023-05-07T06:41:35;21.70;53.50
62589;DHT22;58504;48.770;9.148;2023-05-07T06:44:02;21.70;53.40
62589;DHT22;58504;48.770;9.148;2023-05-07T06:46:29;21.80;53.40
62589;DHT22;58504;48.770;9.148;2023-05-07T06:48:57;21.80;53.40
62589;DHT22;58504;48.770;9.148;2023-05-07T06:51:24;21.70;53.30
62589;DHT22;58504;48.770;9.148;2023-05-07T06:53:50;21.80;53.30
62589;DHT22;58504;48.770;9.148;2023-05-07T06:56:17;21.90;53.20
62589;DHT22;58504;48.770;9.148;2023-05-07T06:58:44;21.90;53.10
62589;DHT22;58504;48.770;9.148;2023-05-07T07:01:11;22.00;53.00
62589;DHT22;58504;48.770;9.148;2023-05-07T07:03:37;22.10;52.90
62589;DHT22;58504;48.770;9.148;2023-05-07T07:06:06;22.10;52.80
62589;DHT22;58504;48.770;9.148;2023-05-07T07:08:32;22.20;52.70
62589;DHT22;58504;48.770;9.148;2023-05-07T07:11:00;22.30;52.50
62589;DHT22;58504;48.770;9.148;2023-05-07T07:13:26;22.30;52.30
62589;DHT22;58504;48.770;9.148;2023-05-07T07:15:53;22.40;52.20
62589;DHT22;58504;48.770;9.148;2023-05-07T07:18:20;22.50;52.20
62589;DHT22;58504;48.770;9.148;2023-05-07T07:20:47;22.50;52.00
62589;DHT22;58504;48.770;9.148;2023-05-07T07:23:15;22.60;51.80
62589;DHT22;58504;48.770;9.148;2023-05-07T07:25:41;22.90;51.50
62589;DHT22;58504;48.770;9.148;2023-05-07T07:28:08;23.20;51.10
62589;DHT22;58504;48.770;9.148;2023-05-07T07:30:36;23.50;50.50
62589;DHT22;58504;48.770;9.148;2023-05-07T07:33:03;23.70;50.00
62589;DHT22;58504;48.770;9.148;2023-05-07T07:35:30;23.90;49.60
62589;DHT22;58504;48.770;9.148;2023-05-07T07:37:57;24.00;49.20
62589;DHT22;58504;48.770;9.148;2023-05-07T07:40:25;24.10;49.20
62589;DHT22;58504;48.770;9.148;2023-05-07T07:42:53;24.10;49.00
62589;DHT22;58504;48.770;9.148;2023-05-07T07:45:20;24.20;48.90
62589;DHT22;58504;48.770;9.148;2023-05-07T07:47:47;24.20;48.80
62589;DHT22;58504;48.770;9.148;2023-05-07T07:50:13;24.20;48.80
62589;DHT22;58504;48.770;9.148;2023-05-07T07:52:40;24.20;48.80
62589;DHT22;58504;48.770;9.148;2023-05-07T07:55:08;24.10;48.90
62589;DHT22;58504;48.770;9.148;2023-05-07T07:57:36;24.00;49.10
62589;DHT22;58504;48.770;9.148;2023-05-07T08:00:04;23.90;49.10
62589;DHT22;58504;48.770;9.148;2023-05-07T08:02:32;23.80;49.30
62589;DHT22;58504;48.770;9.148;2023-05-07T08:04:59;23.80;49.40
62589;DHT22;58504;48.770;9.148;2023-05-07T08:07:26;23.80;49.50
62589;DHT22;58504;48.770;9.148;2023-05-07T08:09:52;23.80;49.60
62589;DHT22;58504;48.770;9.148;2023-05-07T08:12:19;23.70;49.60
62589;DHT22;58504;48.770;9.148;2023-05-07T08:14:47;23.70;49.70
62589;DHT22;58504;48.770;9.148;2023-05-07T08:17:14;23.70;49.70
62589;DHT22;58504;48.770;9.148;2023-05-07T08:19:42;23.70;49.70
62589;DHT22;58504;48.770;9.148;2023-05-07T08:22:08;23.80;49.60
62589;DHT22;58504;48.770;9.148;2023-05-07T08:24:36;23.90;49.40
62589;DHT22;58504;48.770;9.148;2023-05-07T08:27:02;24.20;49.60
62589;DHT22;58504;48.770;9.148;2023-05-07T08:29:29;24.50;48.40
62589;DHT22;58504;48.770;9.148;2023-05-07T08:31:57;24.90;47.60
62589;DHT22;58504;48.770;9.148;2023-05-07T08:34:24;25.30;46.80
62589;DHT22;58504;48.770;9.148;2023-05-07T08:36:51;25.50;46.30
62589;DHT22;58504;48.770;9.148;2023-05-07T08:39:18;25.80;45.80
62589;DHT22;58504;48.770;9.148;2023-05-07T08:41:45;26.00;45.20
62589;DHT22;58504;48.770;9.148;2023-05-07T08:44:13;26.20;45.00
62589;DHT22;58504;48.770;9.148;2023-05-07T08:46:41;26.50;44.60
62589;DHT22;58504;48.770;9.148;2023-05-07T08:49:10;26.90;43.90
62589;DHT22;58504;48.770;9.148;2023-05-07T08:51:37;27.30;43.10
62589;DHT22;58504;48.770;9.148;2023-05-07T08:54:04;27.70;42.30
62589;DHT22;58504;48.770;9.148;2023-05-07T08:56:32;28.00;41.70
62589;DHT22;58504;48.770;9.148;2023-05-07T08:58:58;28.30;41.70
62589;DHT22;58504;48.770;9.148;2023-05-07T09:01:26;28.50;40.60
62589;DHT22;58504;48.770;9.148;2023-05-07T09:03:53;28.70;40.30
62589;DHT22;58504;48.770;9.148;2023-05-07T09:06:21;28.80;40.10
62589;DHT22;58504;48.770;9.148;2023-05-07T09:08:52;28.80;40.00
62589;DHT22;58504;48.770;9.148;2023-05-07T09:11:20;28.80;40.00
62589;DHT22;58504;48.770;9.148;2023-05-07T09:13:48;28.70;40.10
62589;DHT22;58504;48.770;9.148;2023-05-07T09:16:15;28.60;40.20
62589;DHT22;58504;48.770;9.148;2023-05-07T09:18:42;28.50;40.40
62589;DHT22;58504;48.770;9.148;2023-05-07T09:21:10;28.30;40.60
62589;DHT22;58504;48.770;9.148;2023-05-07T09:23:39;28.20;40.80
62589;DHT22;58504;48.770;9.148;2023-05-07T09:26:06;28.00;41.20
62589;DHT22;58504;48.770;9.148;2023-05-07T09:28:38;27.90;41.40
62589;DHT22;58504;48.770;9.148;2023-05-07T09:31:06;27.70;41.70
62589;DHT22;58504;48.770;9.148;2023-05-07T09:33:33;27.60;42.00
62589;DHT22;58504;48.770;9.148;2023-05-07T09:36:02;27.40;42.20
62589;DHT22;58504;48.770;9.148;2023-05-07T09:38:30;27.30;42.50
62589;DHT22;58504;48.770;9.148;2023-05-07T09:41:04;27.20;42.60
62589;DHT22;58504;48.770;9.148;2023-05-07T09:43:34;27.10;42.80
62589;DHT22;58504;48.770;9.148;2023-05-07T09:46:03;27.10;43.10
62589;DHT22;58504;48.770;9.148;2023-05-07T09:48:35;27.00;43.30
62589;DHT22;58504;48.770;9.148;2023-05-07T09:51:09;26.90;43.50
62589;DHT22;58504;48.770;9.148;2023-05-07T09:53:38;26.80;43.60
62589;DHT22;58504;48.770;9.148;2023-05-07T09:56:07;26.60;43.70
62589;DHT22;58504;48.770;9.148;2023-05-07T09:58:37;26.60;44.00
62589;DHT22;58504;48.770;9.148;2023-05-07T10:01:04;26.50;44.10
62589;DHT22;58504;48.770;9.148;2023-05-07T10:03:33;26.50;44.30
62589;DHT22;58504;48.770;9.148;2023-05-07T10:06:01;26.40;44.30
62589;DHT22;58504;48.770;9.148;2023-05-07T10:08:30;26.40;44.50
62589;DHT22;58504;48.770;9.148;2023-05-07T10:10:57;26.40;44.50
62589;DHT22;58504;48.770;9.148;2023-05-07T10:13:25;26.30;44.50
62589;DHT22;58504;48.770;9.148;2023-05-07T10:15:52;26.30;44.60
62589;DHT22;58504;48.770;9.148;2023-05-07T10:18:20;26.20;44.70
62589;DHT22;58504;48.770;9.148;2023-05-07T10:20:51;26.20;45.50
62589;DHT22;58504;48.770;9.148;2023-05-07T10:23:23;26.10;45.10
62589;DHT22;58504;48.770;9.148;2023-05-07T10:25:50;26.00;45.20
62589;DHT22;58504;48.770;9.148;2023-05-07T10:28:17;25.90;45.40
62589;DHT22;58504;48.770;9.148;2023-05-07T10:30:58;25.90;45.60
62589;DHT22;58504;48.770;9.148;2023-05-07T10:33:31;25.70;45.80
62589;DHT22;58504;48.770;9.148;2023-05-07T10:36:00;25.70;46.10
62589;DHT22;58504;48.770;9.148;2023-05-07T10:38:29;25.60;46.20
62589;DHT22;58504;48.770;9.148;2023-05-07T10:40:56;25.50;46.50
62589;DHT22;58504;48.770;9.148;2023-05-07T10:43:23;25.40;46.60
62589;DHT22;58504;48.770;9.148;2023-05-07T10:46:16;25.30;46.80
62589;DHT22;58504;48.770;9.148;2023-05-07T10:51:28;25.10;47.10
62589;DHT22;58504;48.770;9.148;2023-05-07T10:54:20;25.00;47.40
62589;DHT22;58504;48.770;9.148;2023-05-07T10:56:47;25.00;47.70
62589;DHT22;58504;48.770;9.148;2023-05-07T10:59:33;24.90;47.80
62589;DHT22;58504;48.770;9.148;2023-05-07T11:02:02;24.90;47.90
62589;DHT22;58504;48.770;9.148;2023-05-07T11:04:31;24.90;48.00
62589;DHT22;58504;48.770;9.148;2023-05-07T11:07:30;24.80;48.00
62589;DHT22;58504;48.770;9.148;2023-05-07T11:09:58;24.70;48.20
62589;DHT22;58504;48.770;9.148;2023-05-07T11:12:49;24.60;48.30
62589;DHT22;58504;48.770;9.148;2023-05-07T11:15:38;24.60;48.50
62589;DHT22;58504;48.770;9.148;2023-05-07T11:18:06;24.50;48.70
62589;DHT22;58504;48.770;9.148;2023-05-07T11:20:54;24.40;48.90
62589;DHT22;58504;48.770;9.148;2023-05-07T11:23:55;24.30;49.10
62589;DHT22;58504;48.770;9.148;2023-05-07T11:26:26;24.20;49.40
62589;DHT22;58504;48.770;9.148;2023-05-07T11:28:53;24.10;49.60
62589;DHT22;58504;48.770;9.148;2023-05-07T11:31:22;24.00;49.70
62589;DHT22;58504;48.770;9.148;2023-05-07T11:33:52;23.90;49.80
62589;DHT22;58504;48.770;9.148;2023-05-07T11:36:19;23.80;50.00
62589;DHT22;58504;48.770;9.148;2023-05-07T11:38:47;23.70;50.10
62589;DHT22;58504;48.770;9.148;2023-05-07T11:41:14;23.70;50.30
62589;DHT22;58504;48.770;9.148;2023-05-07T11:43:55;23.60;50.40
62589;DHT22;58504;48.770;9.148;2023-05-07T11:46:22;23.60;50.60
62589;DHT22;58504;48.770;9.148;2023-05-07T11:48:50;23.50;50.70
62589;DHT22;58504;48.770;9.148;2023-05-07T11:51:21;23.40;50.90
62589;DHT22;58504;48.770;9.148;2023-05-07T11:53:49;23.30;51.00
62589;DHT22;58504;48.770;9.148;2023-05-07T11:56:17;23.20;51.20
62589;DHT22;58504;48.770;9.148;2023-05-07T11:58:45;23.20;51.30
62589;DHT22;58504;48.770;9.148;2023-05-07T12:01:13;23.10;51.40
62589;DHT22;58504;48.770;9.148;2023-05-07T12:03:42;23.10;51.50
62589;DHT22;58504;48.770;9.148;2023-05-07T12:06:12;23.00;51.70
62589;DHT22;58504;48.770;9.148;2023-05-07T12:08:41;23.00;51.80
62589;DHT22;58504;48.770;9.148;2023-05-07T12:11:09;22.90;51.90
62589;DHT22;58504;48.770;9.148;2023-05-07T12:13:36;22.90;52.00
62589;DHT22;58504;48.770;9.148;2023-05-07T12:16:05;22.80;52.00
62589;DHT22;58504;48.770;9.148;2023-05-07T12:18:33;22.80;52.10
62589;DHT22;58504;48.770;9.148;2023-05-07T12:21:01;22.80;52.20
62589;DHT22;58504;48.770;9.148;2023-05-07T12:23:29;22.70;52.30
62589;DHT22;58504;48.770;9.148;2023-05-07T12:25:56;22.70;52.40
62589;DHT22;58504;48.770;9.148;2023-05-07T12:28:23;22.60;52.40
62589;DHT22;58504;48.770;9.148;2023-05-07T12:30:50;22.60;52.50
62589;DHT22;58504;48.770;9.148;2023-05-07T12:33:18;22.50;52.60
62589;DHT22;58504;48.770;9.148;2023-05-07T12:35:47;22.50;52.70
62589;DHT22;58504;48.770;9.148;2023-05-07T12:38:15;22.50;52.80
62589;DHT22;58504;48.770;9.148;2023-05-07T12:40:45;22.40;52.70
62589;DHT22;58504;48.770;9.148;2023-05-07T12:43:16;22.40;52.80
62589;DHT22;58504;48.770;9.148;2023-05-07T12:45:44;22.40;52.90
62589;DHT22;58504;48.770;9.148;2023-05-07T12:48:11;22.30;53.00
62589;DHT22;58504;48.770;9.148;2023-05-07T12:50:38;22.30;53.00
62589;DHT22;58504;48.770;9.148;2023-05-07T12:53:05;22.30;53.00
62589;DHT22;58504;48.770;9.148;2023-05-07T12:55:40;22.30;53.10
62589;DHT22;58504;48.770;9.148;2023-05-07T12:58:15;22.20;53.10
62589;DHT22;58504;48.770;9.148;2023-05-07T13:00:42;22.20;53.20
62589;DHT22;58504;48.770;9.148;2023-05-07T13:03:09;22.20;53.30
62589;DHT22;58504;48.770;9.148;2023-05-07T13:05:37;22.20;53.40
62589;DHT22;58504;48.770;9.148;2023-05-07T13:08:04;22.10;53.40
62589;DHT22;58504;48.770;9.148;2023-05-07T13:10:31;22.10;53.40
62589;DHT22;58504;48.770;9.148;2023-05-07T13:12:59;22.10;53.50
62589;DHT22;58504;48.770;9.148;2023-05-07T13:15:27;22.10;53.60
62589;DHT22;58504;48.770;9.148;2023-05-07T13:17:54;22.10;53.60
62589;DHT22;58504;48.770;9.148;2023-05-07T13:20:21;22.10;53.70
62589;DHT22;58504;48.770;9.148;2023-05-07T13:22:48;22.00;53.60
62589;DHT22;58504;48.770;9.148;2023-05-07T13:25:15;22.00;53.60
62589;DHT22;58504;48.770;9.148;2023-05-07T13:27:42;22.00;53.60
62589;DHT22;58504;48.770;9.148;2023-05-07T13:30:09;22.00;53.60
62589;DHT22;58504;48.770;9.148;2023-05-07T13:32:37;22.00;53.60
62589;DHT22;58504;48.770;9.148;2023-05-07T13:35:04;22.00;53.70
62589;DHT22;58504;48.770;9.148;2023-05-07T13:37:31;22.00;53.70
62589;DHT22;58504;48.770;9.148;2023-05-07T13:39:58;21.90;53.60
62589;DHT22;58504;48.770;9.148;2023-05-07T13:42:25;21.90;53.60
62589;DHT22;58504;48.770;9.148;2023-05-07T13:44:51;21.90;53.70
62589;DHT22;58504;48.770;9.148;2023-05-07T13:47:18;21.90;53.70
62589;DHT22;58504;48.770;9.148;2023-05-07T13:49:46;21.90;53.70
62589;DHT22;58504;48.770;9.148;2023-05-07T13:52:15;21.90;53.70
62589;DHT22;58504;48.770;9.148;2023-05-07T13:54:41;21.90;53.80
62589;DHT22;58504;48.770;9.148;2023-05-07T13:57:08;21.90;54.40
62589;DHT22;58504;48.770;9.148;2023-05-07T13:59:35;21.90;53.90
62589;DHT22;58504;48.770;9.148;2023-05-07T14:02:02;21.90;53.90
62589;DHT22;58504;48.770;9.148;2023-05-07T14:04:30;21.80;53.90
62589;DHT22;58504;48.770;9.148;2023-05-07T14:06:58;21.80;53.90
62589;DHT22;58504;48.770;9.148;2023-05-07T14:09:25;21.80;53.90
62589;DHT22;58504;48.770;9.148;2023-05-07T14:11:51;21.80;53.90
62589;DHT22;58504;48.770;9.148;2023-05-07T14:14:18;21.80;53.90
62589;DHT22;58504;48.770;9.148;2023-05-07T14:16:45;21.80;54.50
62589;DHT22;58504;48.770;9.148;2023-05-07T14:19:12;21.80;53.90
62589;DHT22;58504;48.770;9.148;2023-05-07T14:21:39;21.80;54.00
62589;DHT22;58504;48.770;9.148;2023-05-07T14:24:07;21.80;54.00
62589;DHT22;58504;48.770;9.148;2023-05-07T14:26:35;21.80;54.00
62589;DHT22;58504;48.770;9.148;2023-05-07T14:29:02;21.80;54.10
62589;DHT22;58504;48.770;9.148;2023-05-07T14:31:29;21.80;54.10
62589;DHT22;58504;48.770;9.148;2023-05-07T14:33:56;21.80;54.10
62589;DHT22;58504;48.770;9.148;2023-05-07T14:36:24;21.80;54.10
62589;DHT22;58504;48.770;9.148;2023-05-07T14:38:52;21.80;54.10
62589;DHT22;58504;48.770;9.148;2023-05-07T14:41:21;21.80;54.10
62589;DHT22;58504;48.770;9.148;2023-05-07T14:43:48;21.70;54.00
62589;DHT22;58504;48.770;9.148;2023-05-07T14:46:16;21.70;54.00
62589;DHT22;58504;48.770;9.148;2023-05-07T14:48:43;21.70;54.00
62589;DHT22;58504;48.770;9.148;2023-05-07T14:51:10;21.70;54.00
62589;DHT22;58504;48.770;9.148;2023-05-07T14:53:37;21.70;54.00
62589;DHT22;58504;48.770;9.148;2023-05-07T14:56:04;21.70;54.10
62589;DHT22;58504;48.770;9.148;2023-05-07T14:58:33;21.70;54.10
62589;DHT22;58504;48.770;9.148;2023-05-07T15:01:00;21.70;54.10
62589;DHT22;58504;48.770;9.148;2023-05-07T15:03:27;21.70;54.10
62589;DHT22;58504;48.770;9.148;2023-05-07T15:05:54;21.70;54.10
62589;DHT22;58504;48.770;9.148;2023-05-07T15:08:21;21.70;54.00
62589;DHT22;58504;48.770;9.148;2023-05-07T15:10:48;21.70;54.10
62589;DHT22;58504;48.770;9.148;2023-05-07T15:13:14;21.70;54.10
62589;DHT22;58504;48.770;9.148;2023-05-07T15:15:44;21.70;54.10
62589;DHT22;58504;48.770;9.148;2023-05-07T15:18:11;21.70;54.10
62589;DHT22;58504;48.770;9.148;2023-05-07T15:20:38;21.70;54.10
62589;DHT22;58504;48.770;9.148;2023-05-07T15:23:06;21.70;54.10
62589;DHT22;58504;48.770;9.148;2023-05-07T15:25:35;21.70;54.10
62589;DHT22;58504;48.770;9.148;2023-05-07T15:28:02;21.70;54.10
62589;DHT22;58504;48.770;9.148;2023-05-07T15:30:29;21.70;54.20
62589;DHT22;58504;48.770;9.148;2023-05-07T15:32:57;21.70;54.20
62589;DHT22;58504;48.770;9.148;2023-05-07T15:35:24;21.70;54.20
62589;DHT22;58504;48.770;9.148;2023-05-07T15:37:51;21.60;54.10